Time;durP1;ratioP1;P1;durP2;ratioP2;P2;SDS_P1;SDS_P2;PMS_P1;PMS_P2;Temp;Humidity;BMP_temperature;BMP_pressure;BME280_temperature;BME280_humidity;BME280_pressure;Samples;Min_cycle;Max_cycle;Signal;HPM_P1;HPM_P2
2023/08/13 00:00:35;;;;;;;3.45;3.00;;;23.00;75.90;;;;;;5005162;28;20038;-64
2023/08/13 00:03:00;;;;;;;4.80;3.45;;;22.90;75.80;;;;;;5006989;28;20033;-64
2023/08/13 00:05:26;;;;;;;3.25;2.95;;;22.80;75.80;;;;;;5011622;28;20088;-64
2023/08/13 00:07:52;;;;;;;4.60;3.58;;;22.90;76.00;;;;;;5007242;28;20418;-64
2023/08/13 00:10:18;;;;;;;3.50;3.20;;;22.90;76.10;;;;;;5013428;28;20034;-63
2023/08/13 00:12:43;;;;;;;4.25;3.38;;;22.90;76.10;;;;;;5008444;28;20069;-64
2023/08/13 00:15:10;;;;;;;4.47;3.58;;;22.80;76.30;;;;;;5013634;28;20042;-64
2023/08/13 00:17:36;;;;;;;4.15;3.50;;;22.80;76.40;;;;;;5010783;28;20034;-64
2023/08/13 00:20:02;;;;;;;3.42;2.80;;;22.80;76.50;;;;;;5011731;28;20041;-64
2023/08/13 00:22:30;;;;;;;4.53;3.05;;;22.80;76.50;;;;;;5010893;28;20033;-65
2023/08/13 00:24:55;;;;;;;3.53;3.20;;;22.80;76.50;;;;;;5013313;28;20033;-64
2023/08/13 00:27:21;;;;;;;3.35;2.70;;;22.80;76.30;;;;;;5013448;28;20037;-64
2023/08/13 00:29:46;;;;;;;4.20;2.78;;;22.80;76.50;;;;;;5012552;28;20073;-64
2023/08/13 00:32:12;;;;;;;5.07;2.60;;;22.80;76.50;;;;;;5006856;28;20045;-64
2023/08/13 00:34:38;;;;;;;4.88;2.70;;;22.80;76.50;;;;;;5010906;28;20129;-63
2023/08/13 00:37:03;;;;;;;3.28;2.38;;;22.70;76.30;;;;;;5007186;28;20529;-64
2023/08/13 00:39:29;;;;;;;6.45;2.58;;;22.70;76.40;;;;;;5009135;28;20417;-64
2023/08/13 00:41:55;;;;;;;3.40;2.60;;;22.70;76.50;;;;;;5008765;28;20057;-64
2023/08/13 00:44:20;;;;;;;2.38;2.17;;;22.70;76.60;;;;;;5010634;28;20053;-64
2023/08/13 00:46:46;;;;;;;2.53;2.33;;;22.60;76.50;;;;;;5007546;28;20084;-64
2023/08/13 00:49:14;;;;;;;3.25;2.30;;;22.60;76.60;;;;;;5008659;28;20025;-64
2023/08/13 00:51:40;;;;;;;2.63;2.42;;;22.50;76.80;;;;;;5011263;28;20113;-64
2023/08/13 00:54:08;;;;;;;2.80;2.60;;;22.50;76.90;;;;;;5011737;28;20112;-64
2023/08/13 00:56:35;;;;;;;2.80;2.55;;;22.50;77.10;;;;;;5007847;28;20034;-65
2023/08/13 00:59:00;;;;;;;3.10;2.78;;;22.50;77.10;;;;;;5002582;28;20069;-64
2023/08/13 01:01:26;;;;;;;3.00;2.50;;;22.40;77.00;;;;;;5002120;28;20037;-64
2023/08/13 01:03:52;;;;;;;3.80;2.60;;;22.40;77.10;;;;;;5002193;28;20200;-64
2023/08/13 01:06:43;;;;;;;2.92;2.45;;;22.40;77.30;;;;;;5007331;28;20385;-63
2023/08/13 01:09:20;;;;;;;3.17;2.85;;;22.40;77.50;;;;;;5005528;28;20489;-64
2023/08/13 01:12:13;;;;;;;2.67;2.47;;;22.30;77.90;;;;;;5002710;28;20034;-65
2023/08/13 01:14:55;;;;;;;3.17;2.88;;;22.20;78.00;;;;;;5008455;28;20076;-64
2023/08/13 01:17:25;;;;;;;3.28;2.97;;;22.20;78.20;;;;;;5008666;28;20672;-64
2023/08/13 01:19:50;;;;;;;3.60;3.00;;;22.10;77.70;;;;;;5013183;28;20037;-64
2023/08/13 01:22:16;;;;;;;4.53;3.08;;;22.00;77.80;;;;;;4990469;28;20052;-64
2023/08/13 01:24:41;;;;;;;3.85;3.08;;;22.00;78.00;;;;;;5011311;28;20042;-64
2023/08/13 01:27:45;;;;;;;3.63;3.17;;;22.00;78.30;;;;;;5007207;28;20034;-63
2023/08/13 01:30:19;;;;;;;3.58;2.60;;;21.90;79.80;;;;;;5010788;28;20125;-64
2023/08/13 01:33:09;;;;;;;5.13;2.75;;;21.80;79.10;;;;;;5012428;28;20052;-63
2023/08/13 01:35:36;;;;;;;4.28;3.20;;;21.70;79.30;;;;;;5011827;28;20038;-64
2023/08/13 01:38:03;;;;;;;4.00;2.85;;;21.70;79.50;;;;;;5010051;28;20044;-64
2023/08/13 01:40:29;;;;;;;2.95;2.70;;;21.60;79.80;;;;;;5011306;28;20041;-63
2023/08/13 01:42:55;;;;;;;3.30;2.83;;;21.60;79.90;;;;;;5012176;28;20034;-64
2023/08/13 01:45:21;;;;;;;2.80;2.60;;;21.60;79.90;;;;;;5013177;28;20084;-64
2023/08/13 01:47:48;;;;;;;6.15;2.72;;;21.60;79.80;;;;;;5009451;28;20601;-64
2023/08/13 01:50:13;;;;;;;5.05;2.80;;;21.60;79.80;;;;;;5010585;28;20468;-64
2023/08/13 01:52:39;;;;;;;3.22;2.95;;;21.60;79.80;;;;;;5010469;28;20326;-64
2023/08/13 01:55:05;;;;;;;3.60;2.90;;;21.60;79.80;;;;;;5012951;28;20604;-64
2023/08/13 01:57:31;;;;;;;4.28;2.60;;;21.60;79.80;;;;;;5014485;28;20099;-64
2023/08/13 01:59:57;;;;;;;3.60;2.85;;;21.60;79.70;;;;;;5014335;28;20505;-64
2023/08/13 02:02:23;;;;;;;3.28;2.92;;;21.60;79.60;;;;;;5011814;28;20045;-65
2023/08/13 02:04:48;;;;;;;3.03;2.72;;;21.60;79.50;;;;;;5014824;28;20038;-64
2023/08/13 02:07:14;;;;;;;3.83;2.78;;;21.60;79.50;;;;;;5013878;28;20049;-64
2023/08/13 02:09:40;;;;;;;5.95;3.22;;;21.60;79.50;;;;;;5010554;28;20500;-64
2023/08/13 02:12:06;;;;;;;3.45;2.78;;;21.60;79.40;;;;;;5000506;28;20030;-64
2023/08/13 02:14:31;;;;;;;3.40;2.85;;;21.60;79.30;;;;;;5007508;28;20045;-64
2023/08/13 02:16:58;;;;;;;2.95;2.75;;;21.60;79.40;;;;;;5009676;28;20507;-63
2023/08/13 02:19:24;;;;;;;3.22;2.80;;;21.60;79.40;;;;;;5009388;28;20081;-64
2023/08/13 02:21:49;;;;;;;3.10;2.80;;;21.50;79.40;;;;;;5009383;28;20034;-64
2023/08/13 02:24:15;;;;;;;5.03;2.88;;;21.50;80.30;;;;;;5010904;28;20505;-64
2023/08/13 02:26:41;;;;;;;3.20;2.50;;;21.40;79.50;;;;;;5012705;28;20044;-64
2023/08/13 02:29:06;;;;;;;4.22;2.72;;;21.40;79.70;;;;;;5008073;28;22391;-64
2023/08/13 02:31:32;;;;;;;3.45;3.10;;;21.40;79.70;;;;;;5010203;28;20037;-64
2023/08/13 02:33:57;;;;;;;3.65;3.25;;;21.30;79.80;;;;;;5009165;28;20084;-65
2023/08/13 02:36:23;;;;;;;3.15;2.95;;;21.30;80.00;;;;;;5011652;28;20049;-64
2023/08/13 02:38:48;;;;;;;3.67;2.67;;;21.20;80.00;;;;;;5010558;28;21458;-64
2023/08/13 02:41:14;;;;;;;3.00;2.67;;;21.20;80.10;;;;;;5010030;28;20046;-64
2023/08/13 02:43:50;;;;;;;3.38;3.08;;;21.20;80.30;;;;;;5006656;28;20033;-64
2023/08/13 02:46:15;;;;;;;3.25;3.05;;;21.20;81.00;;;;;;5010294;28;20104;-64
2023/08/13 02:48:41;;;;;;;3.08;2.85;;;21.10;80.50;;;;;;5009838;28;22119;-65
2023/08/13 02:51:06;;;;;;;3.17;2.88;;;21.10;80.50;;;;;;5012171;28;20505;-65
2023/08/13 02:53:32;;;;;;;3.58;3.10;;;21.10;80.60;;;;;;5001416;28;20085;-65
2023/08/13 02:55:57;;;;;;;4.75;2.80;;;21.00;80.80;;;;;;5005244;28;20116;-64
2023/08/13 02:58:23;;;;;;;3.38;2.90;;;21.00;81.00;;;;;;5010485;28;20533;-64
2023/08/13 03:00:49;;;;;;;2.83;2.63;;;20.90;81.00;;;;;;5004294;28;20033;-64
2023/08/13 03:03:14;;;;;;;3.35;2.95;;;20.90;81.00;;;;;;5007306;28;20042;-64
2023/08/13 03:05:40;;;;;;;3.30;3.00;;;20.90;81.10;;;;;;5005254;28;20092;-64
2023/08/13 03:08:06;;;;;;;3.28;2.92;;;20.90;81.10;;;;;;5009176;28;20029;-64
2023/08/13 03:10:32;;;;;;;3.22;2.92;;;20.90;81.20;;;;;;5004063;28;20084;-64
2023/08/13 03:12:57;;;;;;;4.35;2.90;;;20.80;81.30;;;;;;4985158;28;20042;-65
2023/08/13 03:15:23;;;;;;;2.63;2.42;;;20.80;81.50;;;;;;4991992;28;20487;-64
2023/08/13 03:17:49;;;;;;;2.63;2.42;;;20.70;81.50;;;;;;4991547;28;20042;-64
2023/08/13 03:20:14;;;;;;;3.65;2.58;;;20.70;81.60;;;;;;4992519;28;20034;-64
2023/08/13 03:22:40;;;;;;;2.78;2.53;;;20.70;81.70;;;;;;4988140;28;20058;-64
2023/08/13 03:25:06;;;;;;;3.15;2.42;;;20.70;81.70;;;;;;4988029;28;20494;-64
2023/08/13 03:27:32;;;;;;;3.13;2.63;;;20.70;81.50;;;;;;4990964;28;20042;-64
2023/08/13 03:29:57;;;;;;;2.60;2.40;;;20.70;81.70;;;;;;4990274;28;20096;-63
2023/08/13 03:32:23;;;;;;;4.35;2.53;;;20.70;81.80;;;;;;4987246;28;20132;-65
2023/08/13 03:34:48;;;;;;;3.67;2.47;;;20.70;81.70;;;;;;5009350;28;20037;-64
2023/08/13 03:37:14;;;;;;;2.65;2.45;;;20.70;81.60;;;;;;5009243;28;20641;-63
2023/08/13 03:39:39;;;;;;;3.63;2.67;;;20.70;81.50;;;;;;5005782;28;20041;-64
2023/08/13 03:42:05;;;;;;;3.83;2.50;;;20.70;82.40;;;;;;5010271;28;20060;-64
2023/08/13 03:44:30;;;;;;;3.38;2.53;;;20.70;81.50;;;;;;5007536;28;20513;-64
2023/08/13 03:46:56;;;;;;;2.92;2.50;;;20.70;81.60;;;;;;5007643;28;20532;-64
2023/08/13 03:49:21;;;;;;;3.20;2.90;;;20.60;81.60;;;;;;5008478;28;20155;-64
2023/08/13 03:51:47;;;;;;;3.00;2.80;;;20.60;81.70;;;;;;5012267;28;20106;-64
2023/08/13 03:54:12;;;;;;;3.20;2.55;;;20.60;82.00;;;;;;5004984;28;20121;-64
2023/08/13 03:56:38;;;;;;;4.22;3.05;;;20.50;82.00;;;;;;5010515;28;20250;-64
2023/08/13 03:59:05;;;;;;;2.78;2.58;;;20.50;82.30;;;;;;5010563;28;20145;-64
2023/08/13 04:01:30;;;;;;;4.57;2.70;;;20.50;82.90;;;;;;5004422;28;20464;-64
2023/08/13 04:03:56;;;;;;;3.50;2.60;;;20.40;82.70;;;;;;5011108;28;20492;-64
2023/08/13 04:06:21;;;;;;;2.97;2.67;;;20.40;82.80;;;;;;5004365;28;20026;-64
2023/08/13 04:08:47;;;;;;;4.80;2.90;;;20.40;82.90;;;;;;5010425;28;20042;-64
2023/08/13 04:11:13;;;;;;;3.83;2.90;;;20.40;82.80;;;;;;5002841;28;20451;-64
2023/08/13 04:13:38;;;;;;;3.70;2.75;;;20.40;82.90;;;;;;5007963;28;20315;-64
2023/08/13 04:16:04;;;;;;;2.80;2.60;;;20.50;83.10;;;;;;5003858;28;20490;-64
2023/08/13 04:18:29;;;;;;;2.58;2.38;;;20.50;82.90;;;;;;5006915;28;20662;-64
2023/08/13 04:20:55;;;;;;;2.83;2.58;;;20.60;83.10;;;;;;5009811;28;20117;-64
2023/08/13 04:23:20;;;;;;;2.22;2.03;;;20.60;83.10;;;;;;5008463;28;20045;-64
2023/08/13 04:25:46;;;;;;;2.83;2.50;;;20.60;83.00;;;;;;5008117;28;20445;-64
2023/08/13 04:28:12;;;;;;;2.70;2.50;;;20.70;82.90;;;;;;5008769;28;20588;-64
2023/08/13 04:30:37;;;;;;;3.85;2.58;;;20.70;82.70;;;;;;5007312;28;20046;-64
2023/08/13 04:33:03;;;;;;;2.72;2.45;;;20.70;82.60;;;;;;5007615;28;20033;-66
2023/08/13 04:35:28;;;;;;;3.97;2.58;;;20.70;82.50;;;;;;5009564;28;20622;-64
2023/08/13 04:37:54;;;;;;;2.97;2.58;;;20.70;82.50;;;;;;5006834;28;20033;-66
2023/08/13 04:40:20;;;;;;;2.30;2.10;;;20.80;82.60;;;;;;5006783;28;20272;-64
2023/08/13 04:42:45;;;;;;;2.60;2.30;;;20.70;82.40;;;;;;5003091;28;20038;-65
2023/08/13 04:45:12;;;;;;;2.42;2.30;;;20.80;82.40;;;;;;5008483;28;20239;-66
2023/08/13 04:47:38;;;;;;;2.72;2.53;;;20.80;82.40;;;;;;4989668;28;20564;-64
2023/08/13 04:50:05;;;;;;;2.60;2.40;;;20.80;82.50;;;;;;5010808;28;20038;-66
2023/08/13 04:52:30;;;;;;;2.90;2.60;;;20.80;82.40;;;;;;5011144;28;20033;-66
2023/08/13 04:54:57;;;;;;;2.33;2.22;;;20.70;82.50;;;;;;5015371;28;20040;-66
2023/08/13 04:57:22;;;;;;;4.72;3.00;;;20.70;82.80;;;;;;5011262;28;20492;-66
2023/08/13 04:59:48;;;;;;;3.55;3.25;;;20.70;83.10;;;;;;5011677;28;20025;-66
2023/08/13 05:02:13;;;;;;;4.40;3.65;;;20.70;83.30;;;;;;5007747;28;20045;-66
2023/08/13 05:04:39;;;;;;;5.65;4.32;;;20.70;83.40;;;;;;5009633;28;20348;-66
2023/08/13 05:07:04;;;;;;;6.07;4.43;;;20.70;83.70;;;;;;5011079;28;20079;-66
2023/08/13 05:09:31;;;;;;;6.38;4.50;;;20.70;83.90;;;;;;5003791;28;20035;-63
2023/08/13 05:11:57;;;;;;;7.20;4.22;;;20.80;84.00;;;;;;4986214;28;20034;-65
2023/08/13 05:14:22;;;;;;;10.73;5.72;;;20.80;84.00;;;;;;5006856;28;21133;-65
2023/08/13 05:16:48;;;;;;;10.88;5.72;;;20.70;84.10;;;;;;5009802;28;20057;-65
2023/08/13 05:19:13;;;;;;;11.30;6.45;;;20.80;84.30;;;;;;5011626;28;20121;-65
2023/08/13 05:21:39;;;;;;;10.10;6.68;;;20.70;84.50;;;;;;5009726;28;20036;-66
2023/08/13 05:24:05;;;;;;;10.00;7.13;;;20.70;84.70;;;;;;5014836;28;20438;-66
2023/08/13 05:26:31;;;;;;;11.30;7.43;;;20.70;84.90;;;;;;5010725;28;20128;-65
2023/08/13 05:28:57;;;;;;;11.48;7.45;;;20.70;85.10;;;;;;5012124;28;20702;-65
2023/08/13 05:31:22;;;;;;;12.63;8.13;;;20.70;85.40;;;;;;5010657;28;20046;-65
2023/08/13 05:33:48;;;;;;;17.42;7.68;;;20.70;85.50;;;;;;5005247;28;20042;-65
2023/08/13 05:36:13;;;;;;;25.25;8.55;;;20.70;85.60;;;;;;5012941;28;20099;-65
2023/08/13 05:38:39;;;;;;;9.43;7.05;;;20.70;85.80;;;;;;5007455;28;20041;-65
2023/08/13 05:41:05;;;;;;;9.85;7.63;;;20.80;86.00;;;;;;5012556;28;20057;-65
2023/08/13 05:43:31;;;;;;;10.45;8.50;;;20.90;86.20;;;;;;5010707;28;20037;-65
2023/08/13 05:45:56;;;;;;;9.40;7.88;;;20.80;86.40;;;;;;5007793;28;20030;-66
2023/08/13 05:48:22;;;;;;;10.68;8.38;;;20.90;86.60;;;;;;5010878;28;20041;-66
2023/08/13 05:50:48;;;;;;;11.50;8.50;;;21.00;86.70;;;;;;5010721;28;20046;-65
2023/08/13 05:53:13;;;;;;;11.60;8.73;;;21.00;86.80;;;;;;5008030;28;20034;-65
2023/08/13 05:55:39;;;;;;;10.45;8.02;;;21.10;86.90;;;;;;5009480;28;20557;-65
2023/08/13 05:58:05;;;;;;;8.73;7.72;;;21.10;86.80;;;;;;5006649;28;20033;-65
2023/08/13 06:00:31;;;;;;;10.65;7.82;;;21.10;86.90;;;;;;5006238;28;20045;-65
2023/08/13 06:02:57;;;;;;;8.18;7.15;;;21.20;87.00;;;;;;5007332;28;20113;-66
2023/08/13 06:05:23;;;;;;;7.90;7.05;;;21.20;86.90;;;;;;5008357;28;20042;-65
2023/08/13 06:07:48;;;;;;;7.05;6.35;;;21.20;87.10;;;;;;5009919;28;20034;-65
2023/08/13 06:10:14;;;;;;;7.60;6.57;;;21.20;87.20;;;;;;5005999;28;20087;-65
2023/08/13 06:12:39;;;;;;;7.10;6.40;;;21.20;87.30;;;;;;4990820;28;20200;-65
2023/08/13 06:15:05;;;;;;;7.07;6.47;;;21.30;87.40;;;;;;5010887;28;20091;-65
2023/08/13 06:17:31;;;;;;;7.18;6.53;;;21.30;87.50;;;;;;5017000;28;20084;-65
2023/08/13 06:19:57;;;;;;;9.63;7.45;;;21.40;87.50;;;;;;5016901;28;20044;-65
2023/08/13 06:22:23;;;;;;;11.02;7.75;;;21.40;87.60;;;;;;5010225;28;20149;-65
2023/08/13 06:24:49;;;;;;;8.60;7.63;;;21.40;87.70;;;;;;4994012;28;20113;-63
2023/08/13 06:27:15;;;;;;;8.45;7.00;;;21.50;87.80;;;;;;5005853;28;20901;-64
2023/08/13 06:29:41;;;;;;;9.98;7.28;;;21.40;88.00;;;;;;5000455;28;20480;-64
2023/08/13 06:32:07;;;;;;;8.30;7.40;;;21.50;88.00;;;;;;5006701;28;20021;-65
2023/08/13 06:34:32;;;;;;;9.73;8.35;;;21.50;88.30;;;;;;5005973;28;20038;-65
2023/08/13 06:36:58;;;;;;;9.27;7.45;;;21.60;88.60;;;;;;5004936;28;20041;-66
2023/08/13 06:39:24;;;;;;;7.70;6.65;;;21.60;88.50;;;;;;5000440;28;20423;-66
2023/08/13 06:41:50;;;;;;;7.55;6.63;;;21.60;88.30;;;;;;5000270;28;20176;-66
2023/08/13 06:44:20;;;;;;;9.43;7.72;;;21.70;88.50;;;;;;5000362;28;20073;-65
2023/08/13 06:46:49;;;;;;;9.57;7.13;;;21.70;88.50;;;;;;5004807;28;20042;-65
2023/08/13 06:49:15;;;;;;;8.63;7.13;;;21.80;88.80;;;;;;5010670;28;20057;-65
2023/08/13 06:51:41;;;;;;;7.20;6.47;;;21.90;88.50;;;;;;5006491;28;20508;-67
2023/08/13 06:54:07;;;;;;;7.13;6.43;;;22.00;88.10;;;;;;5008594;28;20041;-66
2023/08/13 06:56:35;;;;;;;7.97;6.93;;;22.10;87.90;;;;;;5000115;28;20043;-66
2023/08/13 06:59:00;;;;;;;6.88;6.18;;;22.20;87.70;;;;;;4986232;28;20050;-65
2023/08/13 07:01:26;;;;;;;7.32;6.40;;;22.30;87.60;;;;;;4998974;28;20047;-65
2023/08/13 07:03:52;;;;;;;7.68;6.25;;;22.30;87.40;;;;;;5007488;28;20045;-66
2023/08/13 07:06:17;;;;;;;8.07;6.68;;;22.40;88.10;;;;;;5000586;28;20045;-66
2023/08/13 07:08:43;;;;;;;6.65;6.05;;;22.50;87.30;;;;;;5000658;28;20046;-66
2023/08/13 07:11:08;;;;;;;8.40;6.57;;;22.50;87.10;;;;;;4996312;28;20391;-66
2023/08/13 07:13:34;;;;;;;9.65;7.38;;;22.70;87.30;;;;;;4992637;28;20034;-64
2023/08/13 07:15:59;;;;;;;8.60;7.68;;;22.70;87.10;;;;;;5001753;28;20044;-65
2023/08/13 07:18:26;;;;;;;9.50;6.72;;;22.80;86.90;;;;;;5003044;28;20489;-65
2023/08/13 07:20:51;;;;;;;8.07;7.35;;;22.80;86.60;;;;;;5009469;28;20033;-63
2023/08/13 07:23:17;;;;;;;7.68;6.93;;;22.90;86.60;;;;;;5007671;28;20500;-64
2023/08/13 07:25:43;;;;;;;8.07;7.25;;;22.90;86.60;;;;;;5006351;28;20088;-62
2023/08/13 07:28:08;;;;;;;7.68;6.97;;;23.00;86.60;;;;;;5007227;28;20512;-64
2023/08/13 07:30:34;;;;;;;7.07;6.45;;;23.10;86.60;;;;;;5003188;28;20042;-63
2023/08/13 07:33:00;;;;;;;9.00;7.38;;;23.20;86.40;;;;;;5004668;28;20067;-64
2023/08/13 07:35:25;;;;;;;9.38;7.10;;;23.20;86.20;;;;;;5004935;28;20128;-63
2023/08/13 07:37:52;;;;;;;7.93;7.13;;;23.30;85.70;;;;;;5006277;28;20038;-64
2023/08/13 07:40:18;;;;;;;8.23;7.50;;;23.40;85.50;;;;;;5001194;28;20026;-64
2023/08/13 07:42:44;;;;;;;7.45;6.75;;;23.40;85.40;;;;;;5006059;28;20112;-64
2023/08/13 07:45:10;;;;;;;9.73;7.72;;;23.40;85.20;;;;;;5005905;28;20117;-64
2023/08/13 07:47:36;;;;;;;7.80;7.00;;;23.50;85.40;;;;;;5009363;28;20556;-64
2023/08/13 07:50:04;;;;;;;7.15;6.53;;;23.60;85.30;;;;;;4990413;28;20037;-63
2023/08/13 07:52:34;;;;;;;7.63;6.88;;;23.60;85.20;;;;;;5003696;28;20080;-64
2023/08/13 07:55:00;;;;;;;7.75;6.95;;;23.60;85.00;;;;;;5004348;28;20034;-64
2023/08/13 07:57:26;;;;;;;7.60;6.90;;;23.80;85.10;;;;;;5008671;28;20448;-64
2023/08/13 07:59:51;;;;;;;7.47;6.65;;;23.80;84.70;;;;;;5007162;28;20030;-64
2023/08/13 08:02:17;;;;;;;6.78;6.07;;;23.90;84.60;;;;;;5006275;28;20110;-64
2023/08/13 08:04:44;;;;;;;8.50;6.53;;;24.00;84.60;;;;;;4993695;28;20508;-64
2023/08/13 08:07:10;;;;;;;6.95;5.68;;;24.10;84.10;;;;;;4988385;28;20064;-63
2023/08/13 08:09:36;;;;;;;6.70;6.07;;;24.20;84.00;;;;;;5004075;28;20112;-63
2023/08/13 08:12:02;;;;;;;7.20;5.85;;;24.20;84.10;;;;;;5001212;28;20041;-64
2023/08/13 08:14:27;;;;;;;9.45;6.18;;;24.30;83.80;;;;;;5008326;28;20029;-65
2023/08/13 08:16:57;;;;;;;6.45;5.47;;;24.40;83.60;;;;;;5006405;28;20040;-64
2023/08/13 08:19:23;;;;;;;6.32;5.72;;;24.60;83.50;;;;;;5011412;28;20033;-64
2023/08/13 08:21:49;;;;;;;5.95;5.40;;;24.60;83.20;;;;;;5009617;28;21857;-61
2023/08/13 08:24:14;;;;;;;5.70;5.20;;;24.80;83.00;;;;;;5005258;28;20053;-65
2023/08/13 08:26:43;;;;;;;5.93;5.15;;;24.90;82.40;;;;;;5008941;28;20557;-64
2023/08/13 08:29:09;;;;;;;6.25;5.47;;;25.00;81.70;;;;;;5010638;28;20036;-63
2023/08/13 08:31:34;;;;;;;5.18;4.68;;;25.10;81.90;;;;;;5012847;28;20042;-65
2023/08/13 08:34:00;;;;;;;8.07;5.10;;;25.20;81.20;;;;;;5008750;28;20038;-62
2023/08/13 08:36:25;;;;;;;7.93;5.60;;;25.30;80.90;;;;;;5005902;28;21393;-65
2023/08/13 08:38:51;;;;;;;5.68;5.13;;;25.40;80.40;;;;;;5007707;28;20046;-64
2023/08/13 08:41:18;;;;;;;8.57;4.53;;;25.40;79.90;;;;;;4990842;28;20393;-64
2023/08/13 08:43:44;;;;;;;7.32;5.43;;;25.50;79.80;;;;;;5010396;28;20076;-63
2023/08/13 08:46:11;;;;;;;6.28;4.63;;;25.50;79.20;;;;;;5011860;28;20033;-62
2023/08/13 08:48:38;;;;;;;4.30;3.90;;;25.60;79.10;;;;;;5013401;28;20100;-64
2023/08/13 08:51:04;;;;;;;4.47;4.07;;;25.60;79.00;;;;;;5005944;28;20057;-63
2023/08/13 08:53:33;;;;;;;4.80;4.35;;;25.70;78.90;;;;;;5007730;28;20068;-64
2023/08/13 08:55:58;;;;;;;5.47;4.22;;;25.80;78.70;;;;;;5010635;28;20034;-63
2023/08/13 08:58:24;;;;;;;7.53;4.40;;;25.80;78.00;;;;;;5012078;28;20103;-62
2023/08/13 09:00:49;;;;;;;6.05;4.93;;;25.90;77.10;;;;;;5012566;28;20037;-64
2023/08/13 09:03:16;;;;;;;4.57;3.92;;;26.00;76.90;;;;;;5013053;28;20117;-63
2023/08/13 09:05:42;;;;;;;3.97;3.58;;;26.00;77.20;;;;;;5006008;28;20099;-64
2023/08/13 09:08:12;;;;;;;4.28;3.88;;;26.00;76.90;;;;;;5012302;28;20520;-64
2023/08/13 09:10:40;;;;;;;4.28;3.72;;;26.10;76.80;;;;;;5003708;28;20046;-64
2023/08/13 09:13:07;;;;;;;3.42;3.13;;;26.20;76.70;;;;;;5007750;28;20559;-64
2023/08/13 09:15:32;;;;;;;5.55;3.88;;;26.20;76.50;;;;;;5006115;28;20588;-64
2023/08/13 09:17:59;;;;;;;4.75;3.70;;;26.30;75.80;;;;;;5005563;28;20205;-64
2023/08/13 09:20:25;;;;;;;4.57;3.60;;;26.40;75.90;;;;;;5005027;28;20115;-64
2023/08/13 09:22:51;;;;;;;4.65;3.53;;;26.50;75.80;;;;;;5010224;28;20524;-62
2023/08/13 09:25:18;;;;;;;4.07;3.47;;;26.60;75.90;;;;;;5011224;28;20037;-64
2023/08/13 09:27:45;;;;;;;4.00;3.63;;;26.60;75.60;;;;;;5014168;28;20039;-63
2023/08/13 09:30:28;;;;;;;4.32;3.65;;;26.70;75.30;;;;;;5013428;28;20042;-64
2023/08/13 09:32:57;;;;;;;4.80;3.47;;;26.80;74.00;;;;;;5003547;28;20058;-63
2023/08/13 09:35:23;;;;;;;4.40;3.78;;;26.90;74.80;;;;;;5016085;28;20065;-64
2023/08/13 09:37:49;;;;;;;4.35;3.55;;;26.90;75.20;;;;;;5014879;28;20569;-64
2023/08/13 09:40:15;;;;;;;3.65;3.35;;;27.00;74.10;;;;;;5014147;28;20872;-64
2023/08/13 09:42:42;;;;;;;5.13;3.53;;;27.10;73.40;;;;;;5009341;28;20124;-64
2023/08/13 09:45:10;;;;;;;4.18;3.22;;;27.10;73.20;;;;;;5010106;28;20088;-61
2023/08/13 09:47:37;;;;;;;4.93;3.33;;;27.20;73.10;;;;;;5000005;28;20041;-64
2023/08/13 09:50:03;;;;;;;4.40;3.47;;;27.20;73.10;;;;;;5011834;28;20058;-64
2023/08/13 09:52:30;;;;;;;3.38;3.08;;;27.40;72.70;;;;;;5008218;28;20085;-64
2023/08/13 09:55:11;;;;;;;5.03;3.20;;;27.50;72.10;;;;;;5011593;28;20030;-65
2023/08/13 09:57:38;;;;;;;4.13;3.03;;;27.50;70.60;;;;;;5007346;28;20038;-63
2023/08/13 10:00:06;;;;;;;3.10;2.80;;;27.60;70.60;;;;;;5009163;28;20057;-64
2023/08/13 10:02:32;;;;;;;4.72;3.08;;;27.70;70.40;;;;;;5009914;28;20075;-62
2023/08/13 10:04:58;;;;;;;3.72;3.13;;;27.80;68.90;;;;;;5011234;28;20112;-63
2023/08/13 10:07:24;;;;;;;5.45;3.13;;;27.90;69.30;;;;;;5009583;28;20099;-64
2023/08/13 10:09:51;;;;;;;5.03;3.22;;;27.90;68.40;;;;;;5013295;28;20042;-64
2023/08/13 10:12:17;;;;;;;4.10;3.17;;;27.90;67.70;;;;;;5009755;28;21131;-65
2023/08/13 10:14:43;;;;;;;3.22;2.95;;;27.90;67.60;;;;;;5010575;28;20206;-64
2023/08/13 10:17:13;;;;;;;3.08;2.75;;;28.00;67.50;;;;;;5015524;28;20112;-64
2023/08/13 10:19:44;;;;;;;3.10;2.85;;;28.00;68.20;;;;;;5014779;28;20122;-64
2023/08/13 10:22:11;;;;;;;3.13;2.80;;;28.00;68.40;;;;;;5012528;28;20069;-64
2023/08/13 10:24:38;;;;;;;5.00;3.00;;;28.10;68.50;;;;;;5009229;28;20100;-64
2023/08/13 10:27:03;;;;;;;3.10;2.80;;;28.10;68.30;;;;;;5008233;28;20026;-64
2023/08/13 10:29:37;;;;;;;4.55;2.88;;;28.30;68.00;;;;;;5009525;28;20047;-65
2023/08/13 10:32:14;;;;;;;4.15;2.92;;;28.40;67.90;;;;;;5001260;28;20061;-65
2023/08/13 10:34:41;;;;;;;3.75;3.20;;;28.50;67.10;;;;;;5009035;28;20617;-64
2023/08/13 10:37:15;;;;;;;3.50;2.95;;;28.50;67.00;;;;;;5008550;28;20041;-65
2023/08/13 10:39:41;;;;;;;3.65;2.88;;;28.70;66.40;;;;;;5018536;28;20137;-65
2023/08/13 10:42:33;;;;;;;3.38;2.78;;;28.70;66.60;;;;;;5009689;28;20117;-64
2023/08/13 10:45:09;;;;;;;4.40;2.67;;;28.80;65.30;;;;;;5014660;28;20062;-65
2023/08/13 10:47:47;;;;;;;4.50;2.80;;;28.90;65.50;;;;;;5010767;28;20034;-60
2023/08/13 10:50:32;;;;;;;3.75;3.10;;;28.90;65.10;;;;;;5007324;28;20042;-64
2023/08/13 10:53:04;;;;;;;3.20;2.90;;;29.00;65.30;;;;;;5007183;28;20128;-64
2023/08/13 10:55:32;;;;;;;3.17;2.90;;;29.00;65.10;;;;;;5011052;28;20465;-64
2023/08/13 10:57:59;;;;;;;4.07;2.80;;;29.00;64.90;;;;;;5011052;28;20041;-64
2023/08/13 11:00:27;;;;;;;3.60;3.15;;;29.10;64.80;;;;;;5010043;28;20048;-64
2023/08/13 11:02:57;;;;;;;3.45;2.75;;;29.10;64.50;;;;;;5013684;28;20417;-65
2023/08/13 11:05:23;;;;;;;3.33;2.92;;;29.20;64.60;;;;;;5014941;28;20034;-64
2023/08/13 11:07:51;;;;;;;4.63;2.67;;;29.20;64.80;;;;;;5014556;28;20067;-63
2023/08/13 11:10:18;;;;;;;3.60;2.92;;;29.20;64.90;;;;;;5012697;28;20033;-64
2023/08/13 11:12:48;;;;;;;3.00;2.70;;;29.30;64.80;;;;;;5007637;28;20108;-66
2023/08/13 11:15:15;;;;;;;2.97;2.63;;;29.30;65.00;;;;;;5013144;28;20065;-64
2023/08/13 11:17:46;;;;;;;3.53;2.90;;;29.40;65.00;;;;;;5015099;28;20049;-63
2023/08/13 11:20:18;;;;;;;3.58;2.78;;;29.50;65.50;;;;;;5012215;28;20513;-65
2023/08/13 11:22:44;;;;;;;4.22;3.00;;;29.50;64.40;;;;;;5014601;28;20053;-65
2023/08/13 11:25:10;;;;;;;3.42;2.78;;;29.60;64.20;;;;;;5013606;28;20037;-64
2023/08/13 11:27:36;;;;;;;3.88;2.67;;;29.70;64.00;;;;;;5015024;28;20038;-65
2023/08/13 11:30:03;;;;;;;3.10;2.80;;;29.80;64.00;;;;;;5015212;28;20374;-64
2023/08/13 11:32:28;;;;;;;6.03;2.88;;;29.80;64.00;;;;;;5011505;28;20034;-65
2023/08/13 11:34:54;;;;;;;3.13;2.92;;;29.90;64.10;;;;;;5015001;28;20095;-65
2023/08/13 11:37:21;;;;;;;3.67;2.67;;;29.90;63.50;;;;;;5014799;28;20054;-65
2023/08/13 11:39:46;;;;;;;4.00;2.80;;;29.90;62.90;;;;;;5015954;28;20608;-65
2023/08/13 11:42:12;;;;;;;2.70;2.45;;;30.00;62.80;;;;;;5003921;28;20038;-65
2023/08/13 11:44:37;;;;;;;7.57;2.97;;;30.10;62.90;;;;;;5010621;28;20413;-65
2023/08/13 11:47:06;;;;;;;3.60;2.70;;;30.10;62.90;;;;;;5013303;28;20159;-65
2023/08/13 11:49:41;;;;;;;3.13;2.58;;;30.10;62.70;;;;;;5009011;28;20046;-66
2023/08/13 11:52:07;;;;;;;2.70;2.50;;;30.20;62.20;;;;;;5010437;28;20042;-65
2023/08/13 11:54:34;;;;;;;4.07;2.75;;;30.30;62.60;;;;;;5014185;28;20529;-65
2023/08/13 11:57:01;;;;;;;3.60;2.70;;;30.40;62.10;;;;;;5010557;28;20573;-66
2023/08/13 11:59:30;;;;;;;3.22;2.35;;;30.40;61.80;;;;;;5010065;28;20076;-64
2023/08/13 12:01:57;;;;;;;3.03;2.72;;;30.50;62.00;;;;;;5011598;28;20120;-64
2023/08/13 12:04:23;;;;;;;3.83;2.80;;;30.60;61.90;;;;;;5015051;28;20095;-65
2023/08/13 12:06:52;;;;;;;3.35;3.05;;;30.60;61.60;;;;;;5015721;28;20060;-64
2023/08/13 12:09:18;;;;;;;4.35;2.47;;;30.70;60.70;;;;;;5015442;28;20034;-65
2023/08/13 12:11:44;;;;;;;4.65;2.67;;;30.80;61.40;;;;;;5001789;28;20062;-65
2023/08/13 12:14:10;;;;;;;2.85;2.50;;;30.90;61.40;;;;;;5010064;28;20058;-65
2023/08/13 12:16:36;;;;;;;2.88;2.60;;;30.90;61.20;;;;;;5014480;28;20188;-64
2023/08/13 12:19:07;;;;;;;3.63;2.72;;;31.00;61.10;;;;;;5006548;28;20443;-65
2023/08/13 12:21:34;;;;;;;4.88;2.72;;;31.00;59.90;;;;;;5004441;28;20041;-66
2023/08/13 12:24:01;;;;;;;4.55;2.60;;;31.10;59.80;;;;;;5006406;28;20083;-65
2023/08/13 12:26:26;;;;;;;3.85;2.90;;;31.20;59.60;;;;;;5002868;28;20558;-64
2023/08/13 12:28:52;;;;;;;4.10;2.70;;;31.20;59.40;;;;;;5015689;28;20045;-65
2023/08/13 12:31:21;;;;;;;4.55;2.58;;;31.10;59.30;;;;;;5012290;28;20033;-64
2023/08/13 12:33:46;;;;;;;2.65;2.45;;;31.10;59.50;;;;;;5015064;28;20042;-64
2023/08/13 12:36:12;;;;;;;2.95;2.75;;;31.10;59.40;;;;;;5013343;28;20033;-64
2023/08/13 12:38:41;;;;;;;3.50;2.70;;;31.10;59.40;;;;;;5010263;28;20041;-66
2023/08/13 12:41:08;;;;;;;3.47;2.67;;;31.00;59.40;;;;;;5014316;28;20025;-65
2023/08/13 12:43:35;;;;;;;5.38;2.50;;;30.90;59.50;;;;;;5014405;28;20044;-64